Time;durP1;ratioP1;P1;durP2;ratioP2;P2;SDS_P1;SDS_P2;PMS_P1;PMS_P2;Temp;Humidity;BMP_temperature;BMP_pressure;BME280_temperature;BME280_humidity;BME280_pressure;Samples;Min_cycle;Max_cycle;Signal;HPM_P1;HPM_P2
2021/08/19 00:01:50;;;;;;;;;2.00;2.00;;;;;;;;5048370;28;45910;-86
2021/08/19 00:04:16;;;;;;;;;2.33;2.33;;;;;;;;5068785;27;45443;-87
2021/08/19 00:06:41;;;;;;;;;3.00;3.00;;;;;;;;5043882;28;45553;-87
2021/08/19 00:09:07;;;;;;;;;2.00;2.00;;;;;;;;5070311;28;45520;-87
2021/08/19 00:11:32;;;;;;;;;2.00;2.00;;;;;;;;5070970;28;46428;-87
2021/08/19 00:13:58;;;;;;;;;6.00;1.50;;;;;;;;5057461;28;46196;-87
2021/08/19 00:16:23;;;;;;;;;2.00;2.00;;;;;;;;5074155;27;45481;-87
2021/08/19 00:18:48;;;;;;;;;2.33;2.00;;;;;;;;5074233;28;45468;-87
2021/08/19 00:21:13;;;;;;;;;2.00;2.00;;;;;;;;5075490;28;45433;-87
2021/08/19 00:23:39;;;;;;;;;4.50;2.50;;;;;;;;5051640;28;45431;-85
2021/08/19 00:26:05;;;;;;;;;3.00;3.00;;;;;;;;5064027;27;45333;-87
2021/08/19 00:28:30;;;;;;;;;2.00;2.00;;;;;;;;5073161;28;45403;-88
2021/08/19 00:30:55;;;;;;;;;4.00;2.00;;;;;;;;5069251;27;45506;-87
2021/08/19 00:33:21;;;;;;;;;3.00;3.00;;;;;;;;5061460;27;45345;-86
2021/08/19 00:35:46;;;;;;;;;2.00;2.00;;;;;;;;5067331;27;45344;-83
2021/08/19 00:38:11;;;;;;;;;2.00;2.00;;;;;;;;5071169;27;45482;-86
2021/08/19 00:40:36;;;;;;;;;3.00;2.00;;;;;;;;5053689;28;48103;-86
2021/08/19 00:43:04;;;;;;;;;2.00;2.00;;;;;;;;5069633;28;45553;-86
2021/08/19 00:45:31;;;;;;;;;2.50;2.50;;;;;;;;5051803;28;45481;-87
2021/08/19 00:47:56;;;;;;;;;3.00;2.25;;;;;;;;5065291;27;45608;-87
2021/08/19 00:50:23;;;;;;;;;4.00;3.00;;;;;;;;5065960;27;45481;-86
2021/08/19 00:52:48;;;;;;;;;2.75;2.75;;;;;;;;5070469;27;45785;-87
2021/08/19 00:55:13;;;;;;;;;3.00;2.00;;;;;;;;5073230;27;45485;-87
2021/08/19 00:57:39;;;;;;;;;2.75;2.75;;;;;;;;5075038;28;45327;-82
2021/08/19 01:00:05;;;;;;;;;1.25;1.25;;;;;;;;5071246;28;45587;-82
2021/08/19 01:02:30;;;;;;;;;2.25;2.25;;;;;;;;5069037;28;45410;-87
2021/08/19 01:04:56;;;;;;;;;5.00;3.00;;;;;;;;5072768;27;45434;-87
2021/08/19 01:07:21;;;;;;;;;1.00;1.00;;;;;;;;5068938;28;45526;-86
2021/08/19 01:09:48;;;;;;;;;4.67;3.00;;;;;;;;5072995;28;46175;-84
2021/08/19 01:12:14;;;;;;;;;4.00;2.25;;;;;;;;5071032;28;45849;-85
2021/08/19 01:14:40;;;;;;;;;4.75;2.00;;;;;;;;5067557;27;46028;-87
2021/08/19 01:17:09;;;;;;;;;2.75;2.00;;;;;;;;5072473;27;45369;-87
2021/08/19 01:19:35;;;;;;;;;1.00;1.00;;;;;;;;5070052;28;46206;-86
2021/08/19 01:22:00;;;;;;;;;4.00;2.75;;;;;;;;5068891;27;45568;-85
2021/08/19 01:24:25;;;;;;;;;3.00;2.00;;;;;;;;5069388;27;45344;-87
2021/08/19 01:26:53;;;;;;;;;2.25;2.00;;;;;;;;5073942;28;45499;-87
2021/08/19 01:29:18;;;;;;;;;4.25;3.50;;;;;;;;5056937;28;48019;-87
2021/08/19 01:31:54;;;;;;;;;5.00;3.00;;;;;;;;5054104;28;45481;-82
2021/08/19 01:34:20;;;;;;;;;2.50;2.50;;;;;;;;5072077;27;45442;-81
2021/08/19 01:36:45;;;;;;;;;3.00;3.00;;;;;;;;5073831;27;45473;-85
2021/08/19 01:39:10;;;;;;;;;2.00;2.00;;;;;;;;5070155;28;45509;-85
2021/08/19 01:41:35;;;;;;;;;2.00;1.00;;;;;;;;5067329;28;45348;-86
2021/08/19 01:44:00;;;;;;;;;2.00;2.00;;;;;;;;5067273;28;45458;-87
2021/08/19 01:46:26;;;;;;;;;1.67;1.67;;;;;;;;5081213;27;45426;-86
2021/08/19 01:48:51;;;;;;;;;1.33;1.33;;;;;;;;5069948;27;45983;-83
2021/08/19 01:51:17;;;;;;;;;3.00;2.00;;;;;;;;5071158;28;45440;-87
2021/08/19 01:53:42;;;;;;;;;4.00;1.25;;;;;;;;5061367;27;45742;-86
2021/08/19 01:56:08;;;;;;;;;1.25;1.25;;;;;;;;5065851;27;45605;-87
2021/08/19 01:58:34;;;;;;;;;2.00;2.00;;;;;;;;5071070;27;45982;-87
2021/08/19 02:00:59;;;;;;;;;1.75;1.75;;;;;;;;5068273;27;45436;-87
2021/08/19 02:03:24;;;;;;;;;2.33;1.33;;;;;;;;5069586;28;45274;-87
2021/08/19 02:05:49;;;;;;;;;4.00;1.00;;;;;;;;5072095;27;45215;-84
2021/08/19 02:08:15;;;;;;;;;3.00;1.33;;;;;;;;5066625;27;45376;-85
2021/08/19 02:10:41;;;;;;;;;2.75;2.75;;;;;;;;5069961;27;45369;-87
2021/08/19 02:13:06;;;;;;;;;1.25;1.25;;;;;;;;5068070;28;45582;-87
2021/08/19 02:15:32;;;;;;;;;3.00;2.00;;;;;;;;5062746;27;45447;-87
2021/08/19 02:17:57;;;;;;;;;1.00;1.00;;;;;;;;5072436;27;45521;-87
2021/08/19 02:20:23;;;;;;;;;1.00;1.00;;;;;;;;5066601;28;45424;-86
2021/08/19 02:22:48;;;;;;;;;3.00;1.75;;;;;;;;5056838;28;46045;-86
2021/08/19 02:25:14;;;;;;;;;1.00;1.00;;;;;;;;5050861;28;45656;-86
2021/08/19 02:27:39;;;;;;;;;2.75;2.00;;;;;;;;5067060;28;46535;-86
2021/08/19 02:30:04;;;;;;;;;1.25;1.25;;;;;;;;5052447;28;45441;-86
2021/08/19 02:32:31;;;;;;;;;2.50;2.00;;;;;;;;5067789;27;45556;-87
2021/08/19 02:34:57;;;;;;;;;2.00;2.00;;;;;;;;5064529;27;45456;-87
2021/08/19 02:37:22;;;;;;;;;3.00;2.00;;;;;;;;5070600;28;45454;-85
2021/08/19 02:39:48;;;;;;;;;3.33;3.00;;;;;;;;5049851;28;45497;-86
2021/08/19 02:42:13;;;;;;;;;3.00;2.00;;;;;;;;5071013;28;45430;-87
2021/08/19 02:44:38;;;;;;;;;1.33;1.33;;;;;;;;5067463;27;45475;-87
2021/08/19 02:47:03;;;;;;;;;3.00;2.00;;;;;;;;5055655;28;47191;-87
2021/08/19 02:49:28;;;;;;;;;3.00;2.00;;;;;;;;5055137;28;45968;-87
2021/08/19 02:51:54;;;;;;;;;4.00;3.67;;;;;;;;5066480;28;45365;-85
2021/08/19 02:54:19;;;;;;;;;4.67;3.00;;;;;;;;5068667;28;45387;-87
2021/08/19 02:56:44;;;;;;;;;2.00;2.00;;;;;;;;5068355;27;45447;-87
2021/08/19 02:59:09;;;;;;;;;2.00;2.00;;;;;;;;5065596;28;45351;-87
2021/08/19 03:01:34;;;;;;;;;3.00;1.00;;;;;;;;5069046;28;45588;-86
2021/08/19 03:04:00;;;;;;;;;3.00;2.00;;;;;;;;5068007;28;45710;-86
2021/08/19 03:06:25;;;;;;;;;2.00;2.00;;;;;;;;5071694;27;46134;-86
2021/08/19 03:08:50;;;;;;;;;4.00;2.00;;;;;;;;5070474;28;45273;-87
2021/08/19 03:11:15;;;;;;;;;5.67;2.67;;;;;;;;5066003;27;48791;-87
2021/08/19 03:13:41;;;;;;;;;1.25;1.25;;;;;;;;5068553;28;45597;-86
2021/08/19 03:16:06;;;;;;;;;2.00;2.00;;;;;;;;5070872;27;46384;-86
2021/08/19 03:18:31;;;;;;;;;2.00;2.00;;;;;;;;5073139;28;45317;-87
2021/08/19 03:20:57;;;;;;;;;2.75;2.00;;;;;;;;5049785;28;45434;-87
2021/08/19 03:23:23;;;;;;;;;1.75;1.75;;;;;;;;5066059;28;45393;-87
2021/08/19 03:25:48;;;;;;;;;2.25;1.25;;;;;;;;5070077;27;45373;-85
2021/08/19 03:28:14;;;;;;;;;4.00;3.00;;;;;;;;5068602;27;45525;-87
2021/08/19 03:30:39;;;;;;;;;2.25;2.25;;;;;;;;5067779;28;45545;-87
2021/08/19 03:33:05;;;;;;;;;4.00;2.00;;;;;;;;5072406;28;45386;-87
2021/08/19 03:35:31;;;;;;;;;2.50;2.50;;;;;;;;5052723;28;47113;-86
2021/08/19 03:37:56;;;;;;;;;2.00;2.00;;;;;;;;5048848;28;45702;-86
2021/08/19 03:40:21;;;;;;;;;3.00;3.00;;;;;;;;5071340;27;45707;-85
2021/08/19 03:42:47;;;;;;;;;3.00;2.33;;;;;;;;5065827;28;45458;-87
2021/08/19 03:45:12;;;;;;;;;3.25;3.00;;;;;;;;5067777;27;46069;-88
2021/08/19 03:47:38;;;;;;;;;2.00;2.00;;;;;;;;5068771;27;45488;-88
2021/08/19 03:50:05;;;;;;;;;3.00;3.00;;;;;;;;5067647;27;45402;-87
2021/08/19 03:52:30;;;;;;;;;4.75;2.25;;;;;;;;5069610;28;46736;-88
2021/08/19 03:54:57;;;;;;;;;3.00;2.33;;;;;;;;5039952;27;47233;-87
2021/08/19 03:57:22;;;;;;;;;3.50;3.25;;;;;;;;5052188;28;45292;-88
2021/08/19 03:59:47;;;;;;;;;2.00;2.00;;;;;;;;5066205;27;45564;-87
2021/08/19 04:02:12;;;;;;;;;2.00;2.00;;;;;;;;5042825;28;45329;-87
2021/08/19 04:04:37;;;;;;;;;3.00;3.00;;;;;;;;5068332;28;45405;-88
2021/08/19 04:07:03;;;;;;;;;2.00;2.00;;;;;;;;5047102;28;45665;-88
2021/08/19 04:09:28;;;;;;;;;3.00;2.75;;;;;;;;5046883;28;45484;-87
2021/08/19 04:11:53;;;;;;;;;4.67;3.33;;;;;;;;5071860;28;45860;-88
2021/08/19 04:14:18;;;;;;;;;5.33;4.00;;;;;;;;5051331;28;48785;-86
2021/08/19 04:16:44;;;;;;;;;2.00;2.00;;;;;;;;5054951;28;45496;-88
2021/08/19 04:19:09;;;;;;;;;3.00;3.00;;;;;;;;5078217;27;45544;-87
2021/08/19 04:21:34;;;;;;;;;3.50;3.00;;;;;;;;5075184;27;45323;-87
2021/08/19 04:23:59;;;;;;;;;3.00;3.00;;;;;;;;5069277;28;45379;-88
2021/08/19 04:26:26;;;;;;;;;4.33;3.67;;;;;;;;5065757;27;45581;-86
2021/08/19 04:28:52;;;;;;;;;3.75;3.00;;;;;;;;5066867;28;45410;-87
2021/08/19 04:31:17;;;;;;;;;4.00;3.00;;;;;;;;5068897;27;45603;-88
2021/08/19 04:33:42;;;;;;;;;2.00;2.00;;;;;;;;5068528;28;45519;-87
2021/08/19 04:36:08;;;;;;;;;5.67;3.67;;;;;;;;5069423;27;45513;-88
2021/08/19 04:38:34;;;;;;;;;2.00;2.00;;;;;;;;5047136;27;45508;-88
2021/08/19 04:40:59;;;;;;;;;2.00;2.00;;;;;;;;5065132;28;45428;-87
2021/08/19 04:43:24;;;;;;;;;6.00;3.00;;;;;;;;5068784;28;46757;-88
2021/08/19 04:45:50;;;;;;;;;4.67;3.00;;;;;;;;5062484;27;45387;-86
2021/08/19 04:48:15;;;;;;;;;3.33;2.00;;;;;;;;5070274;27;45474;-87
2021/08/19 04:50:40;;;;;;;;;6.25;2.00;;;;;;;;5064182;28;45608;-87
2021/08/19 04:53:05;;;;;;;;;2.33;2.33;;;;;;;;5063716;28;46425;-87
2021/08/19 04:55:31;;;;;;;;;3.25;3.25;;;;;;;;5064922;27;45587;-87
2021/08/19 04:57:56;;;;;;;;;3.00;3.00;;;;;;;;5065479;28;45331;-87
2021/08/19 05:00:21;;;;;;;;;3.00;3.00;;;;;;;;5053734;27;45444;-85
2021/08/19 05:02:46;;;;;;;;;5.00;4.00;;;;;;;;5068265;28;46281;-87
2021/08/19 05:05:11;;;;;;;;;4.33;3.00;;;;;;;;5072339;27;45415;-88
2021/08/19 05:07:37;;;;;;;;;4.33;2.33;;;;;;;;5074015;28;45336;-86
2021/08/19 05:10:02;;;;;;;;;4.25;3.00;;;;;;;;5072965;28;45474;-85
2021/08/19 05:12:27;;;;;;;;;3.00;2.25;;;;;;;;5072052;28;46229;-86
2021/08/19 05:14:52;;;;;;;;;3.67;2.00;;;;;;;;5073007;27;45389;-84
2021/08/19 05:17:18;;;;;;;;;3.00;3.00;;;;;;;;5067243;27;48347;-87
2021/08/19 05:19:43;;;;;;;;;3.00;3.00;;;;;;;;5071266;28;45576;-86
2021/08/19 05:22:08;;;;;;;;;6.33;3.00;;;;;;;;5070650;28;46578;-87
2021/08/19 05:24:33;;;;;;;;;4.00;3.00;;;;;;;;5051763;28;45805;-86
2021/08/19 05:26:58;;;;;;;;;6.67;4.00;;;;;;;;5061044;28;45490;-87
2021/08/19 05:29:24;;;;;;;;;5.33;4.67;;;;;;;;5074461;27;45582;-86
2021/08/19 05:31:49;;;;;;;;;7.00;3.33;;;;;;;;5069330;28;46556;-85
2021/08/19 05:34:14;;;;;;;;;4.00;3.33;;;;;;;;5072697;28;45497;-85
2021/08/19 05:36:41;;;;;;;;;4.00;4.00;;;;;;;;5052275;28;45560;-86
2021/08/19 05:39:06;;;;;;;;;6.00;3.25;;;;;;;;5052937;28;45516;-85
2021/08/19 05:41:31;;;;;;;;;3.00;3.00;;;;;;;;5068535;28;45476;-86
2021/08/19 05:43:57;;;;;;;;;6.25;3.00;;;;;;;;5067869;28;45368;-86
2021/08/19 05:46:22;;;;;;;;;5.67;4.00;;;;;;;;5066908;27;45566;-85
2021/08/19 05:48:47;;;;;;;;;6.33;5.00;;;;;;;;5069335;28;45521;-85
2021/08/19 05:51:12;;;;;;;;;6.00;4.00;;;;;;;;5070395;27;45434;-86
2021/08/19 05:53:38;;;;;;;;;3.00;3.00;;;;;;;;5063343;28;45316;-86
2021/08/19 05:56:03;;;;;;;;;4.33;3.33;;;;;;;;5067688;27;45585;-86
2021/08/19 05:58:30;;;;;;;;;3.00;3.00;;;;;;;;5075216;27;45464;-86
2021/08/19 06:00:55;;;;;;;;;5.25;4.50;;;;;;;;5053478;28;48473;-86
2021/08/19 06:03:21;;;;;;;;;7.00;4.33;;;;;;;;5071758;27;45428;-84
2021/08/19 06:05:47;;;;;;;;;5.00;4.00;;;;;;;;5067368;27;45364;-85
2021/08/19 06:08:12;;;;;;;;;5.00;3.25;;;;;;;;5047304;28;45704;-86
2021/08/19 06:10:37;;;;;;;;;5.00;3.67;;;;;;;;5057468;27;45795;-84
2021/08/19 06:13:03;;;;;;;;;4.00;2.50;;;;;;;;5062563;28;45452;-86
2021/08/19 06:15:28;;;;;;;;;4.50;4.50;;;;;;;;5068420;28;45422;-86
2021/08/19 06:17:53;;;;;;;;;4.33;4.33;;;;;;;;5067493;28;45355;-87
2021/08/19 06:20:19;;;;;;;;;3.33;3.00;;;;;;;;5066227;28;45603;-85
2021/08/19 06:22:44;;;;;;;;;4.00;3.00;;;;;;;;5058533;28;45434;-86
2021/08/19 06:25:10;;;;;;;;;7.50;5.50;;;;;;;;5060582;27;45553;-86
2021/08/19 06:27:35;;;;;;;;;5.75;5.75;;;;;;;;5073634;27;45470;-86
2021/08/19 06:30:00;;;;;;;;;6.33;5.00;;;;;;;;5051416;28;46129;-85
2021/08/19 06:32:26;;;;;;;;;5.00;5.00;;;;;;;;5068791;28;45510;-84
2021/08/19 06:34:51;;;;;;;;;4.67;4.33;;;;;;;;5060500;27;45496;-86
2021/08/19 06:37:16;;;;;;;;;7.00;6.00;;;;;;;;5066845;28;46643;-85
2021/08/19 06:39:41;;;;;;;;;6.33;4.00;;;;;;;;5072020;28;45601;-86
2021/08/19 06:42:07;;;;;;;;;5.67;5.33;;;;;;;;5073802;28;45690;-87
2021/08/19 06:44:32;;;;;;;;;5.33;5.00;;;;;;;;5065436;27;45477;-87
2021/08/19 06:46:57;;;;;;;;;5.67;5.00;;;;;;;;5066650;28;45437;-87
2021/08/19 06:49:22;;;;;;;;;7.67;5.00;;;;;;;;5065775;28;46361;-89
2021/08/19 06:51:47;;;;;;;;;6.00;4.00;;;;;;;;5060267;28;45439;-85
2021/08/19 06:54:12;;;;;;;;;5.33;4.67;;;;;;;;5047663;28;45453;-87
2021/08/19 06:56:38;;;;;;;;;7.00;5.33;;;;;;;;5071556;28;45510;-87
2021/08/19 06:59:03;;;;;;;;;5.67;5.00;;;;;;;;5054035;27;45573;-85
2021/08/19 07:01:28;;;;;;;;;7.75;6.00;;;;;;;;5046819;28;45855;-86
2021/08/19 07:03:53;;;;;;;;;7.00;5.33;;;;;;;;5066201;28;45494;-88
2021/08/19 07:06:19;;;;;;;;;7.00;5.33;;;;;;;;5075787;27;45616;-88
2021/08/19 07:08:44;;;;;;;;;5.00;5.00;;;;;;;;5066374;27;45379;-88
2021/08/19 07:11:11;;;;;;;;;5.00;5.00;;;;;;;;5063911;28;45483;-88
2021/08/19 07:13:36;;;;;;;;;5.00;5.00;;;;;;;;5066533;28;45653;-88
2021/08/19 07:16:01;;;;;;;;;6.00;6.00;;;;;;;;5077377;27;45461;-88
2021/08/19 07:18:26;;;;;;;;;5.25;5.25;;;;;;;;5049715;28;48294;-87
2021/08/19 07:20:51;;;;;;;;;8.67;6.33;;;;;;;;5057880;27;45397;-87
2021/08/19 07:23:17;;;;;;;;;7.00;7.00;;;;;;;;5063495;27;45565;-87
2021/08/19 07:25:44;;;;;;;;;7.75;7.50;;;;;;;;5052460;28;45624;-84
2021/08/19 07:28:09;;;;;;;;;9.00;5.00;;;;;;;;5066980;28;45680;-88
2021/08/19 07:30:34;;;;;;;;;5.25;4.50;;;;;;;;5064279;28;45578;-86
2021/08/19 07:32:59;;;;;;;;;7.25;5.75;;;;;;;;5069167;28;45497;-86
2021/08/19 07:35:25;;;;;;;;;5.50;4.00;;;;;;;;5066552;27;45366;-88
2021/08/19 07:37:51;;;;;;;;;4.67;4.67;;;;;;;;5069727;28;45760;-88
2021/08/19 07:40:18;;;;;;;;;8.00;5.00;;;;;;;;5070331;28;45487;-88
2021/08/19 07:42:44;;;;;;;;;8.00;6.75;;;;;;;;5072369;27;45493;-89
2021/08/19 07:45:09;;;;;;;;;7.00;5.00;;;;;;;;5053245;28;45514;-89
2021/08/19 07:47:35;;;;;;;;;5.00;5.00;;;;;;;;5062356;27;46063;-87
2021/08/19 07:50:01;;;;;;;;;6.00;5.00;;;;;;;;5061271;28;45431;-88
2021/08/19 07:52:27;;;;;;;;;4.25;4.00;;;;;;;;5069261;28;45524;-89
2021/08/19 07:54:52;;;;;;;;;8.00;6.25;;;;;;;;5064391;28;45525;-88
2021/08/19 07:57:18;;;;;;;;;6.67;4.00;;;;;;;;5065090;28;45284;-88
2021/08/19 07:59:43;;;;;;;;;8.00;4.00;;;;;;;;5066982;28;45406;-88
2021/08/19 08:02:08;;;;;;;;;3.33;3.33;;;;;;;;5055663;27;45851;-88
2021/08/19 08:04:33;;;;;;;;;4.00;3.67;;;;;;;;5069509;28;45276;-88
2021/08/19 08:06:58;;;;;;;;;5.67;5.33;;;;;;;;5071956;27;46209;-88
2021/08/19 08:09:24;;;;;;;;;5.33;3.67;;;;;;;;5050317;28;45733;-88
2021/08/19 08:11:49;;;;;;;;;9.33;6.00;;;;;;;;5053696;28;45566;-81
2021/08/19 08:14:14;;;;;;;;;6.00;5.00;;;;;;;;5064183;28;45370;-83
2021/08/19 08:16:39;;;;;;;;;6.50;4.00;;;;;;;;5041225;28;46808;-82
2021/08/19 08:19:05;;;;;;;;;7.00;5.00;;;;;;;;5041721;28;45911;-82
2021/08/19 08:21:30;;;;;;;;;8.00;4.67;;;;;;;;5058979;28;45414;-82
2021/08/19 08:23:55;;;;;;;;;4.00;4.00;;;;;;;;5041730;28;45676;-81
2021/08/19 08:26:21;;;;;;;;;4.75;4.00;;;;;;;;5059982;28;46118;-82
2021/08/19 08:28:50;;;;;;;;;6.25;5.25;;;;;;;;5048475;28;45619;-83
2021/08/19 08:31:15;;;;;;;;;7.00;5.00;;;;;;;;5067094;28;45453;-83
2021/08/19 08:33:40;;;;;;;;;5.67;5.00;;;;;;;;5070186;28;45563;-81
2021/08/19 08:36:05;;;;;;;;;5.00;4.00;;;;;;;;5052259;28;46437;-86
2021/08/19 08:38:31;;;;;;;;;5.33;4.00;;;;;;;;5047310;28;46050;-81
2021/08/19 08:40:56;;;;;;;;;5.00;4.00;;;;;;;;5067204;27;45568;-82
2021/08/19 08:43:22;;;;;;;;;3.75;3.75;;;;;;;;5073568;27;45361;-84
2021/08/19 08:45:49;;;;;;;;;6.25;4.25;;;;;;;;5063484;28;48224;-81
2021/08/19 08:48:15;;;;;;;;;6.00;3.50;;;;;;;;5073600;27;45825;-82
2021/08/19 08:50:44;;;;;;;;;5.50;5.50;;;;;;;;5049791;28;45641;-81
2021/08/19 08:53:10;;;;;;;;;5.75;3.25;;;;;;;;5055886;27;45639;-80
2021/08/19 08:55:36;;;;;;;;;5.25;4.00;;;;;;;;5062080;28;48356;-83
2021/08/19 08:58:01;;;;;;;;;6.75;4.00;;;;;;;;5074293;28;45434;-80
2021/08/19 09:00:26;;;;;;;;;7.00;4.00;;;;;;;;5075843;28;45373;-80
2021/08/19 09:02:51;;;;;;;;;4.67;4.67;;;;;;;;5068498;28;45389;-79
2021/08/19 09:05:21;;;;;;;;;4.67;4.00;;;;;;;;5051979;28;47347;-79
2021/08/19 09:07:57;;;;;;;;;5.50;5.00;;;;;;;;5051393;28;46013;-79
2021/08/19 09:10:23;;;;;;;;;5.75;4.50;;;;;;;;5071037;27;45430;-79
2021/08/19 09:12:49;;;;;;;;;4.00;3.75;;;;;;;;5050049;28;45430;-82
2021/08/19 09:15:15;;;;;;;;;5.00;4.00;;;;;;;;5070445;27;46414;-79
2021/08/19 09:17:45;;;;;;;;;4.50;3.25;;;;;;;;5073821;27;45468;-78
2021/08/19 09:20:11;;;;;;;;;6.00;4.00;;;;;;;;5067365;27;45519;-80
2021/08/19 09:22:49;;;;;;;;;3.00;3.00;;;;;;;;5059975;27;45703;-79
2021/08/19 09:25:25;;;;;;;;;3.00;3.00;;;;;;;;5044310;27;48112;-79
2021/08/19 09:28:09;;;;;;;;;2.00;2.00;;;;;;;;5054909;27;45809;-78
2021/08/19 09:30:35;;;;;;;;;1.00;1.00;;;;;;;;5050107;27;45608;-79
2021/08/19 09:33:04;;;;;;;;;1.50;1.00;;;;;;;;5064278;27;45779;-83
2021/08/19 09:35:30;;;;;;;;;1.00;1.00;;;;;;;;5078212;27;45598;-80
2021/08/19 09:37:56;;;;;;;;;2.00;2.00;;;;;;;;5058183;27;45971;-79
2021/08/19 09:40:21;;;;;;;;;1.25;1.25;;;;;;;;5057244;27;45618;-79
2021/08/19 09:42:46;;;;;;;;;1.00;1.00;;;;;;;;5075106;27;45671;-79
2021/08/19 09:45:19;;;;;;;;;2.00;2.00;;;;;;;;5057076;27;47086;-79
2021/08/19 09:47:45;;;;;;;;;0.25;0.25;;;;;;;;5055254;28;45844;-79
2021/08/19 09:50:12;;;;;;;;;2.75;2.25;;;;;;;;5057524;28;46013;-79
2021/08/19 09:52:37;;;;;;;;;1.50;1.50;;;;;;;;5068303;27;45474;-79
2021/08/19 09:55:22;;;;;;;;;1.00;1.00;;;;;;;;5072925;27;46427;-80
2021/08/19 09:57:47;;;;;;;;;1.00;1.00;;;;;;;;5046844;28;45909;-83
2021/08/19 10:00:42;;;;;;;;;1.00;1.00;;;;;;;;5057024;28;45765;-79
2021/08/19 10:03:09;;;;;;;;;3.00;0.75;;;;;;;;5038469;27;45672;-80
2021/08/19 10:05:35;;;;;;;;;1.50;1.00;;;;;;;;5067477;27;45524;-78
2021/08/19 10:08:00;;;;;;;;;1.00;1.00;;;;;;;;5047867;28;45500;-82
2021/08/19 10:10:26;;;;;;;;;1.00;1.00;;;;;;;;5049246;28;45393;-80
2021/08/19 10:12:51;;;;;;;;;3.25;1.75;;;;;;;;5061542;27;45461;-78
2021/08/19 10:15:16;;;;;;;;;1.00;1.00;;;;;;;;5078553;27;46119;-79
2021/08/19 10:17:45;;;;;;;;;1.67;1.00;;;;;;;;5054686;28;46204;-79
2021/08/19 10:20:11;;;;;;;;;1.25;1.25;;;;;;;;5046939;28;45431;-79
2021/08/19 10:22:38;;;;;;;;;1.50;1.00;;;;;;;;5044843;27;45698;-79
2021/08/19 10:25:05;;;;;;;;;1.25;1.25;;;;;;;;5058171;28;48769;-78
2021/08/19 10:27:31;;;;;;;;;1.00;1.00;;;;;;;;5063737;27;45773;-79
2021/08/19 10:29:59;;;;;;;;;2.00;1.00;;;;;;;;5064577;27;45468;-80
2021/08/19 10:32:28;;;;;;;;;1.00;1.00;;;;;;;;5061324;27;45545;-80
2021/08/19 10:34:59;;;;;;;;;1.50;1.50;;;;;;;;5047894;28;47760;-80
2021/08/19 10:37:43;;;;;;;;;0.75;0.75;;;;;;;;5059227;27;45574;-79
2021/08/19 10:40:24;;;;;;;;;1.00;1.00;;;;;;;;5059705;27;45734;-80
2021/08/19 10:42:53;;;;;;;;;2.00;0.25;;;;;;;;5050983;27;45493;-79
2021/08/19 10:45:28;;;;;;;;;2.00;1.00;;;;;;;;5053445;27;47175;-79
2021/08/19 10:47:54;;;;;;;;;1.75;1.00;;;;;;;;5064891;27;46280;-78
2021/08/19 10:50:31;;;;;;;;;2.00;1.00;;;;;;;;5048515;27;49173;-80
2021/08/19 10:53:08;;;;;;;;;2.25;2.25;;;;;;;;5053831;28;45807;-77
2021/08/19 10:55:38;;;;;;;;;3.00;2.25;;;;;;;;5053930;28;48519;-79
2021/08/19 10:58:20;;;;;;;;;5.75;1.00;;;;;;;;5063596;27;45876;-79
2021/08/19 11:00:46;;;;;;;;;1.00;1.00;;;;;;;;5069561;27;47439;-78
2021/08/19 11:03:30;;;;;;;;;3.00;3.00;;;;;;;;5055125;27;45530;-79
2021/08/19 11:05:55;;;;;;;;;2.00;2.00;;;;;;;;5073587;27;45576;-79
2021/08/19 11:08:35;;;;;;;;;3.00;3.00;;;;;;;;5054288;27;45676;-79
2021/08/19 11:11:00;;;;;;;;;3.00;2.25;;;;;;;;5054869;27;45545;-79
2021/08/19 11:13:27;;;;;;;;;1.25;1.25;;;;;;;;5046441;27;45874;-80
2021/08/19 11:15:53;;;;;;;;;2.00;2.00;;;;;;;;5065762;27;46009;-81
2021/08/19 11:18:25;;;;;;;;;2.33;2.00;;;;;;;;5053549;27;45987;-79
2021/08/19 11:20:51;;;;;;;;;2.00;2.00;;;;;;;;5065401;27;45687;-79
2021/08/19 11:23:16;;;;;;;;;2.00;2.00;;;;;;;;5043338;28;45567;-79
2021/08/19 11:25:43;;;;;;;;;3.75;2.00;;;;;;;;5058570;28;45518;-80
2021/08/19 11:28:12;;;;;;;;;2.00;2.00;;;;;;;;5040257;28;46232;-80
2021/08/19 11:30:40;;;;;;;;;3.75;2.00;;;;;;;;5054210;28;45638;-79
2021/08/19 11:33:19;;;;;;;;;4.00;3.00;;;;;;;;5064652;28;45543;-79
2021/08/19 11:35:45;;;;;;;;;4.00;2.25;;;;;;;;5057949;28;46233;-79
2021/08/19 11:38:12;;;;;;;;;2.00;2.00;;;;;;;;5065254;27;45785;-80
2021/08/19 11:40:38;;;;;;;;;3.75;2.00;;;;;;;;5053305;28;45572;-81
2021/08/19 11:43:21;;;;;;;;;2.00;2.00;;;;;;;;5057704;27;45540;-79
2021/08/19 11:45:47;;;;;;;;;2.00;2.00;;;;;;;;5069449;27;45518;-79
2021/08/19 11:48:13;;;;;;;;;2.00;2.00;;;;;;;;5068230;27;45455;-80
2021/08/19 11:50:38;;;;;;;;;2.75;2.00;;;;;;;;5051851;27;45556;-78
2021/08/19 11:53:03;;;;;;;;;3.00;1.00;;;;;;;;5074120;27;45399;-77
2021/08/19 11:55:28;;;;;;;;;1.50;1.50;;;;;;;;5071718;27;46059;-79
2021/08/19 11:58:12;;;;;;;;;1.00;1.00;;;;;;;;5064990;27;45498;-79
2021/08/19 12:00:38;;;;;;;;;4.00;1.00;;;;;;;;5069482;27;45486;-80
2021/08/19 12:03:03;;;;;;;;;4.00;4.00;;;;;;;;5049375;28;45457;-78
2021/08/19 12:05:28;;;;;;;;;2.00;2.00;;;;;;;;5051456;28;47033;-80
2021/08/19 12:07:53;;;;;;;;;1.33;1.00;;;;;;;;5050762;27;45925;-78
2021/08/19 12:10:19;;;;;;;;;2.00;2.00;;;;;;;;5068286;27;45573;-80
2021/08/19 12:12:45;;;;;;;;;3.25;2.00;;;;;;;;5070269;27;45561;-79
2021/08/19 12:15:11;;;;;;;;;4.00;2.00;;;;;;;;5072348;28;46286;-80
2021/08/19 12:17:37;;;;;;;;;3.25;2.50;;;;;;;;5066717;28;45349;-80
2021/08/19 12:20:19;;;;;;;;;3.00;2.00;;;;;;;;5044408;28;45439;-79
2021/08/19 12:22:45;;;;;;;;;2.25;2.25;;;;;;;;5058457;28;45485;-80
2021/08/19 12:25:19;;;;;;;;;2.00;2.00;;;;;;;;5067396;28;45515;-80
2021/08/19 12:27:44;;;;;;;;;1.00;1.00;;;;;;;;5046025;28;45800;-80
2021/08/19 12:30:09;;;;;;;;;2.00;2.00;;;;;;;;5067290;27;45693;-81
2021/08/19 12:32:36;;;;;;;;;2.00;2.00;;;;;;;;5061967;28;45406;-78
2021/08/19 12:35:21;;;;;;;;;1.25;1.25;;;;;;;;5069499;28;46095;-77
2021/08/19 12:37:57;;;;;;;;;3.75;1.75;;;;;;;;5066472;28;45721;-78
2021/08/19 12:40:34;;;;;;;;;2.25;2.00;;;;;;;;5046053;28;45594;-79
2021/08/19 12:43:07;;;;;;;;;4.00;2.25;;;;;;;;5061463;28;45442;-79
2021/08/19 12:45:33;;;;;;;;;2.25;2.25;;;;;;;;5061267;28;45557;-79
2021/08/19 12:48:03;;;;;;;;;2.00;2.00;;;;;;;;5047342;27;45937;-79
2021/08/19 12:50:29;;;;;;;;;2.00;2.00;;;;;;;;5067520;27;45497;-80
2021/08/19 12:53:07;;;;;;;;;2.00;2.00;;;;;;;;5061330;28;45512;-82
2021/08/19 12:55:32;;;;;;;;;3.50;2.25;;;;;;;;5066789;28;45371;-81
2021/08/19 12:57:59;;;;;;;;;2.67;2.67;;;;;;;;5068303;27;45378;-78
2021/08/19 13:00:25;;;;;;;;;1.00;1.00;;;;;;;;5078491;27;45326;-81
2021/08/19 13:02:51;;;;;;;;;1.00;1.00;;;;;;;;5077022;27;45526;-81
2021/08/19 13:05:17;;;;;;;;;3.75;2.00;;;;;;;;5068276;27;45351;-82
2021/08/19 13:07:43;;;;;;;;;3.00;2.00;;;;;;;;5066497;28;45241;-80
2021/08/19 13:10:09;;;;;;;;;1.25;1.00;;;;;;;;5049100;28;45567;-86
2021/08/19 13:12:34;;;;;;;;;0.50;0.50;;;;;;;;5067161;27;45831;-87
2021/08/19 13:15:00;;;;;;;;;1.00;1.00;;;;;;;;5053690;28;48792;-80
2021/08/19 13:17:26;;;;;;;;;1.00;1.00;;;;;;;;5055963;27;45866;-81
2021/08/19 13:19:51;;;;;;;;;0.75;0.75;;;;;;;;5072726;27;45442;-81
2021/08/19 13:22:17;;;;;;;;;2.00;1.00;;;;;;;;5073353;27;45404;-81
2021/08/19 13:24:43;;;;;;;;;1.25;1.25;;;;;;;;5055897;28;48366;-81
2021/08/19 13:27:11;;;;;;;;;0.50;0.50;;;;;;;;5083896;27;45426;-80
2021/08/19 13:29:37;;;;;;;;;1.50;1.00;;;;;;;;5076350;27;45322;-80
2021/08/19 13:32:02;;;;;;;;;1.00;1.00;;;;;;;;5049008;28;45557;-80
2021/08/19 13:34:27;;;;;;;;;2.50;1.00;;;;;;;;5067893;27;46393;-81
2021/08/19 13:36:53;;;;;;;;;0.33;0.33;;;;;;;;5067734;28;45408;-81
2021/08/19 13:39:18;;;;;;;;;0.00;0.00;;;;;;;;5042476;28;45484;-80
2021/08/19 13:41:43;;;;;;;;;1.00;1.00;;;;;;;;5051315;28;45331;-81
2021/08/19 13:44:08;;;;;;;;;1.00;1.00;;;;;;;;5073839;27;46118;-80
2021/08/19 13:46:34;;;;;;;;;1.00;1.00;;;;;;;;5070763;28;45368;-82
2021/08/19 13:48:59;;;;;;;;;1.50;1.50;;;;;;;;5071954;27;45541;-81
2021/08/19 13:51:24;;;;;;;;;1.67;0.00;;;;;;;;5069720;27;45523;-81
2021/08/19 13:53:50;;;;;;;;;2.00;1.00;;;;;;;;5050602;28;47400;-81
2021/08/19 13:56:15;;;;;;;;;1.00;1.00;;;;;;;;5068210;28;45426;-81
2021/08/19 13:58:40;;;;;;;;;0.00;0.00;;;;;;;;5057545;27;45645;-80
2021/08/19 14:01:05;;;;;;;;;1.00;1.00;;;;;;;;5071415;28;45457;-80
2021/08/19 14:03:31;;;;;;;;;0.50;0.50;;;;;;;;5071494;27;45426;-80
2021/08/19 14:05:56;;;;;;;;;2.00;1.00;;;;;;;;5053968;28;45426;-81
2021/08/19 14:08:21;;;;;;;;;1.00;1.00;;;;;;;;5067131;27;45405;-80
2021/08/19 14:10:46;;;;;;;;;2.33;1.33;;;;;;;;5070574;28;45417;-80
2021/08/19 14:13:12;;;;;;;;;1.00;1.00;;;;;;;;5069264;28;45533;-81
2021/08/19 14:15:38;;;;;;;;;1.00;1.00;;;;;;;;5072972;28;45598;-80
2021/08/19 14:18:03;;;;;;;;;1.75;1.00;;;;;;;;5055844;28;45386;-81
2021/08/19 14:20:28;;;;;;;;;3.00;1.00;;;;;;;;5065722;27;45494;-81
2021/08/19 14:22:54;;;;;;;;;1.00;1.00;;;;;;;;5067378;28;46790;-81
2021/08/19 14:25:19;;;;;;;;;2.00;2.00;;;;;;;;5071203;28;45478;-80
2021/08/19 14:27:45;;;;;;;;;4.33;3.67;;;;;;;;5048985;28;45395;-81
2021/08/19 14:30:12;;;;;;;;;4.00;3.00;;;;;;;;5049101;28;45728;-81
2021/08/19 14:32:37;;;;;;;;;5.00;4.00;;;;;;;;5075981;27;45924;-81
2021/08/19 14:35:03;;;;;;;;;2.00;2.00;;;;;;;;5073807;27;45513;-80
2021/08/19 14:37:28;;;;;;;;;2.00;2.00;;;;;;;;5060008;28;45383;-81
2021/08/19 14:39:53;;;;;;;;;2.00;2.00;;;;;;;;5076194;27;45525;-80